CDT,Max TemperatureF,Mean TemperatureF,Min TemperatureF,Max Dew PointF,MeanDew PointF,Min DewpointF,Max Humidity, Mean Humidity, Min Humidity, Max Sea Level PressureIn, Mean Sea Level PressureIn, Min Sea Level PressureIn, Max VisibilityMiles, Mean VisibilityMiles, Min VisibilityMiles, Max Wind SpeedMPH, Mean Wind SpeedMPH, Max Gust SpeedMPH,PrecipitationIn, CloudCover, Events, WindDirDegrees
2013-6-1,73,67,62,65,62,58,95,82,70,29.78,29.74,29.69,10,10,4,18,9,148,0.11,4,Rain-Thunderstorm,210
2013-6-2,62,53,43,58,52,42,97,87,75,30.07,29.94,29.76,10,9,2,17,7,138,0.01,6,Rain,5
2013-6-3,66,52,38,47,43,38,99,68,42,30.14,30.09,30.04,10,9,1,7,1,,0.00,1,,94
2013-6-4,72,58,44,49,46,43,98,62,38,30.17,30.13,30.10,10,10,5,12,4,148,0.00,0,,98
2013-6-5,74,64,54,53,49,46,79,58,39,30.11,30.01,29.93,10,10,10,13,6,146,0.00,4,Rain,70
2013-6-6,68,60,53,57,50,45,90,70,50,29.93,29.90,29.88,10,10,7,13,7,18,0.04,3,Rain,36
2013-6-7,70,60,50,52,47,41,82,63,41,29.96,29.92,29.90,10,10,10,13,5,18,0.00,1,,33
2013-6-8,76,60,45,50,44,40,96,56,31,30.02,29.97,29.93,10,10,2,12,1,108,0.00,1,,93
2013-6-9,80,68,57,62,54,44,87,57,39,30.01,29.91,29.82,10,10,7,13,5,130,0.02,3,Rain,140
2013-6-10,79,70,60,66,62,60,98,79,52,29.88,29.80,29.77,10,7,0,9,2,,0.03,4,Fog-Rain-Thunderstorm,322
2013-6-11,84,70,57,67,61,56,97,71,42,29.95,29.89,29.82,10,8,1,9,1,125,0.00,0,Thunderstorm,189
2013-6-12,90,77,63,71,67,62,96,80,47,29.92,29.78,29.61,10,8,0,26,5,75,1.71,2,Rain-Thunderstorm,115
2013-6-13,77,68,58,62,56,50,96,68,42,30.06,29.91,29.66,10,9,4,14,7,23,0.04,2,Rain-Thunderstorm,24
2013-6-14,77,66,54,58,53,50,86,66,42,30.15,30.08,30.02,10,10,10,10,5,17,0.00,0,,70
2013-6-15,79,69,59,67,62,52,88,75,62,30.07,29.99,29.89,10,10,1,20,3,28,0.39,2,Rain-Thunderstorm,183
2013-6-16,82,74,65,66,63,60,92,73,47,29.95,29.93,29.88,10,10,10,10,5,122,0.00,2,,244
2013-6-17,87,72,59,66,58,50,97,60,28,29.97,29.92,29.88,10,8,0,12,2,17,0.00,1,Fog,266
2013-6-18,72,64,56,59,54,46,93,72,56,30.08,30.01,29.92,10,10,4,15,8,24,0.00,2,,38
2013-6-19,78,66,54,57,52,47,85,59,41,30.15,30.11,30.07,10,10,10,9,4,137,0.00,1,,74
2013-6-20,86,72,57,65,57,49,83,57,36,30.17,30.13,30.07,10,10,10,8,2,,0.00,1,,150
2013-6-21,84,75,66,68,64,60,94,73,55,30.22,30.09,29.94,10,10,1,18,5,147,0.71,1,Rain-Thunderstorm,172
2013-6-22,78,72,67,71,67,64,90,80,65,30.11,30.04,29.98,10,10,7,16,4,138,0.01,1,Rain-Thunderstorm,195
2013-6-23,85,74,64,71,67,60,95,79,56,30.08,30.02,29.95,10,10,4,16,5,128,0.12,1,Rain-Thunderstorm,195
2013-6-24,84,76,67,73,68,63,95,83,64,30.09,30.03,29.97,10,8,2,16,5,139,0.16,2,Rain-Thunderstorm,208
2013-6-25,84,76,68,73,69,63,96,77,59,29.96,29.89,29.83,10,9,2,13,5,147,0.00,1,Thunderstorm,214
2013-6-26,81,72,65,70,67,64,95,81,63,29.86,29.79,29.74,10,10,1,18,5,139,0.86,2,Rain-Thunderstorm,130
2013-6-27,89,76,64,72,66,59,98,70,43,29.81,29.77,29.71,10,8,0,14,8,24,0.00,1,Fog,284
2013-6-28,81,73,65,65,60,55,90,66,40,29.74,29.68,29.63,10,10,5,14,5,28,0.07,1,Rain-Thunderstorm,300
2013-6-29,71,68,64,64,60,53,94,82,62,29.77,29.67,29.61,10,9,2,16,4,23,0.18,4,Rain-Thunderstorm,16
2013-6-30,79,70,62,59,52,36,85,58,29,29.99,29.89,29.77,10,10,10,21,8,28,0.00,3,,25